createdAt,value
2018-07-25T00:00:03.703Z,11.75
2018-07-25T00:02:31.737Z,12.85
2018-07-25T00:04:59.784Z,12.15
2018-07-25T00:07:27.826Z,13.13
2018-07-25T00:09:55.874Z,14.18
2018-07-25T00:12:23.968Z,14.07
2018-07-25T00:14:52.124Z,14.60
2018-07-25T00:17:20.169Z,13.03
2018-07-25T00:19:48.222Z,13.85
2018-07-25T00:22:16.303Z,13.18
2018-07-25T00:24:44.367Z,13.05
2018-07-25T00:27:12.423Z,12.18
2018-07-25T00:29:40.496Z,13.00
2018-07-25T00:32:08.556Z,13.05
2018-07-25T00:34:36.625Z,12.75
2018-07-25T00:37:04.676Z,12.20
2018-07-25T00:39:32.755Z,13.98
2018-07-25T00:42:00.817Z,14.83
2018-07-25T00:44:28.896Z,13.18
2018-07-25T00:46:56.963Z,13.45
2018-07-25T00:49:25.029Z,14.25
2018-07-25T00:51:53.096Z,13.55
2018-07-25T00:54:21.151Z,13.22
2018-07-25T00:56:49.216Z,13.10
2018-07-25T00:59:17.276Z,15.23
2018-07-25T01:01:45.352Z,16.30
2018-07-25T01:04:13.412Z,16.50
2018-07-25T01:06:41.480Z,14.68
2018-07-25T01:09:10.844Z,13.20
2018-07-25T01:11:38.913Z,12.50
2018-07-25T01:14:06.989Z,11.95
2018-07-25T01:16:35.094Z,12.58
2018-07-25T01:19:03.167Z,13.25
2018-07-25T01:21:31.250Z,12.90
2018-07-25T01:23:59.353Z,13.60
2018-07-25T01:26:27.421Z,14.60
2018-07-25T01:28:55.584Z,12.60
2018-07-25T01:31:23.648Z,12.45
2018-07-25T01:33:51.705Z,12.37
2018-07-25T01:36:19.778Z,13.43
2018-07-25T01:38:47.838Z,12.50
2018-07-25T01:41:15.912Z,13.18
2018-07-25T01:43:43.976Z,11.88
2018-07-25T01:46:12.053Z,11.43
2018-07-25T01:48:40.112Z,11.60
2018-07-25T01:51:08.188Z,13.08
2018-07-25T01:53:36.256Z,13.30
2018-07-25T01:56:04.336Z,12.82
2018-07-25T01:58:32.396Z,12.07
2018-07-25T02:01:00.492Z,13.62
2018-07-25T02:03:28.536Z,12.60
2018-07-25T02:05:56.639Z,12.53
2018-07-25T02:08:24.708Z,12.95
2018-07-25T02:10:52.764Z,11.93
2018-07-25T02:13:20.828Z,12.13
2018-07-25T02:15:48.891Z,12.60
2018-07-25T02:18:16.960Z,12.20
2018-07-25T02:20:45.038Z,11.53
2018-07-25T02:23:13.104Z,11.73
2018-07-25T02:25:41.169Z,11.40
2018-07-25T02:28:09.236Z,11.25
2018-07-25T02:30:37.304Z,12.05
2018-07-25T02:33:05.421Z,11.65
2018-07-25T02:35:33.503Z,12.50
2018-07-25T02:38:01.560Z,12.23
2018-07-25T02:40:29.642Z,11.85
2018-07-25T02:42:57.703Z,11.33
2018-07-25T02:45:25.793Z,11.85
2018-07-25T02:47:53.851Z,12.95
2018-07-25T02:50:21.930Z,13.65
2018-07-25T02:52:49.999Z,13.10
2018-07-25T02:55:18.068Z,12.20
2018-07-25T02:57:46.137Z,12.37
2018-07-25T03:00:14.200Z,14.38
2018-07-25T03:02:42.263Z,13.40
2018-07-25T03:05:10.337Z,13.72
2018-07-25T03:07:38.437Z,14.53
2018-07-25T03:10:06.689Z,14.03
2018-07-25T03:12:34.772Z,14.50
2018-07-25T03:15:02.844Z,16.93
2018-07-25T03:17:30.953Z,16.35
2018-07-25T03:19:59.015Z,14.73
2018-07-25T03:22:27.077Z,13.95
2018-07-25T03:24:55.113Z,13.78
2018-07-25T03:27:23.164Z,13.58
2018-07-25T03:29:51.204Z,12.45
2018-07-25T03:32:19.253Z,12.30
2018-07-25T03:34:47.305Z,12.35
2018-07-25T03:37:15.360Z,11.40
2018-07-25T03:39:43.412Z,12.00
2018-07-25T03:42:11.473Z,12.30
2018-07-25T03:44:39.516Z,12.45
2018-07-25T03:47:07.581Z,11.10
2018-07-25T03:49:35.623Z,12.15
2018-07-25T03:52:03.673Z,13.15
2018-07-25T03:54:32.107Z,13.65
2018-07-25T03:57:00.151Z,13.22
2018-07-25T03:59:28.200Z,12.30
2018-07-25T04:01:56.532Z,13.70
2018-07-25T04:04:24.512Z,15.00
2018-07-25T04:06:52.597Z,12.58
2018-07-25T04:09:20.691Z,12.93
2018-07-25T04:11:48.736Z,15.20
2018-07-25T04:14:16.780Z,13.78
2018-07-25T04:16:44.832Z,14.13
2018-07-25T04:19:12.885Z,13.80
2018-07-25T04:21:40.972Z,13.80
2018-07-25T04:24:09.040Z,13.95
2018-07-25T04:26:37.220Z,12.13
2018-07-25T04:29:05.289Z,13.22
2018-07-25T04:31:33.365Z,12.10
2018-07-25T04:34:01.432Z,13.95
2018-07-25T04:36:29.508Z,13.10
2018-07-25T04:38:57.577Z,13.28
2018-07-25T04:41:25.644Z,13.20
2018-07-25T04:43:53.796Z,13.28
2018-07-25T04:46:21.890Z,13.22
2018-07-25T04:48:49.932Z,12.93
2018-07-25T04:51:18.000Z,13.72
2018-07-25T04:53:46.056Z,13.22
2018-07-25T04:56:14.195Z,13.50
2018-07-25T04:58:42.189Z,12.80
2018-07-25T05:01:10.257Z,12.53
2018-07-25T05:03:38.320Z,13.25
2018-07-25T05:06:06.381Z,13.78
2018-07-25T05:08:34.452Z,13.00
2018-07-25T05:11:02.511Z,11.78
2018-07-25T05:13:30.576Z,13.20
2018-07-25T05:15:58.645Z,11.78
2018-07-25T05:18:26.708Z,11.60
2018-07-25T05:20:54.760Z,12.35
2018-07-25T05:23:22.823Z,11.93
2018-07-25T05:25:50.852Z,12.82
2018-07-25T05:28:18.900Z,13.55
2018-07-25T05:30:46.944Z,12.68
2018-07-25T05:33:15.000Z,12.80
2018-07-25T05:35:43.040Z,12.43
2018-07-25T05:38:11.122Z,13.88
2018-07-25T05:40:39.128Z,11.63
2018-07-25T05:43:07.179Z,11.15
2018-07-25T05:45:35.217Z,11.73
2018-07-25T05:48:03.276Z,12.37
2018-07-25T05:50:31.323Z,12.05
2018-07-25T05:52:59.404Z,11.73
2018-07-25T05:55:27.444Z,13.08
2018-07-25T05:57:55.495Z,11.65
2018-07-25T06:00:23.540Z,11.48
2018-07-25T06:02:51.655Z,13.50
2018-07-25T06:05:19.645Z,11.85
2018-07-25T06:07:47.684Z,12.37
2018-07-25T06:10:15.736Z,12.65
2018-07-25T06:12:43.792Z,13.35
2018-07-25T06:15:11.825Z,13.78
2018-07-25T06:17:39.872Z,11.80
2018-07-25T06:20:08.696Z,12.53
2018-07-25T06:22:36.892Z,12.45
2018-07-25T06:25:04.943Z,10.88
2018-07-25T06:27:32.996Z,11.95
2018-07-25T06:30:01.143Z,13.08
2018-07-25T06:32:29.212Z,12.47
2018-07-25T06:34:57.259Z,11.22
2018-07-25T06:37:25.304Z,11.25
2018-07-25T06:39:53.368Z,10.28
2018-07-25T06:42:21.440Z,11.50
2018-07-25T06:44:49.489Z,10.10
2018-07-25T06:47:17.536Z,10.00
2018-07-25T06:49:45.701Z,9.03
2018-07-25T06:52:13.746Z,10.47
2018-07-25T06:54:41.870Z,9.60
2018-07-25T06:57:09.941Z,9.50
2018-07-25T06:59:38.164Z,9.57
2018-07-25T07:02:06.293Z,9.60
2018-07-25T07:04:34.332Z,9.63
2018-07-25T07:07:02.502Z,8.67
2018-07-25T07:09:30.452Z,10.40
2018-07-25T07:11:58.499Z,10.10
2018-07-25T07:14:26.544Z,10.17
2018-07-25T07:16:54.584Z,8.97
2018-07-25T07:19:22.636Z,9.53
2018-07-25T07:21:50.691Z,9.03
2018-07-25T07:24:18.736Z,9.13
2018-07-25T07:26:46.812Z,9.87
2018-07-25T07:29:14.864Z,9.43
2018-07-25T07:31:42.908Z,9.23
2018-07-25T07:34:10.960Z,10.13
2018-07-25T07:36:39.001Z,9.53
2018-07-25T07:39:09.460Z,9.73
2018-07-25T07:41:37.504Z,9.50
2018-07-25T07:44:05.939Z,9.23
2018-07-25T07:46:33.810Z,8.73
2018-07-25T07:49:01.865Z,9.10
2018-07-25T07:51:29.934Z,8.90
2018-07-25T07:53:58.000Z,9.70
2018-07-25T07:56:26.028Z,9.17
2018-07-25T07:58:54.073Z,9.00
2018-07-25T08:01:22.117Z,8.87
2018-07-25T08:03:50.180Z,8.17
2018-07-25T08:06:18.224Z,8.30
2018-07-25T08:08:46.296Z,7.70
2018-07-25T08:11:18.368Z,8.00
2018-07-25T08:13:47.048Z,8.50
2018-07-25T08:16:15.251Z,7.73
2018-07-25T08:18:43.301Z,8.50
2018-07-25T08:21:11.967Z,8.33
2018-07-25T08:23:40.308Z,7.90
2018-07-25T08:26:08.348Z,7.73
2018-07-25T08:28:36.389Z,7.30
2018-07-25T08:31:04.436Z,7.60
2018-07-25T08:33:32.785Z,6.90
2018-07-25T08:36:00.828Z,7.63
2018-07-25T08:38:41.212Z,7.10
2018-07-25T08:41:09.254Z,7.17
2018-07-25T08:43:38.508Z,7.17
2018-07-25T08:46:07.612Z,7.57
2018-07-25T08:48:35.813Z,7.50
2018-07-25T08:51:04.088Z,7.43
2018-07-25T08:53:32.796Z,7.23
2018-07-25T08:56:00.845Z,6.77
2018-07-25T08:58:29.265Z,6.57
2018-07-25T09:00:57.304Z,7.20
2018-07-25T09:03:25.544Z,6.87
2018-07-25T09:05:53.820Z,6.50
2018-07-25T09:08:21.882Z,6.10
2018-07-25T09:10:49.916Z,7.23
2018-07-25T09:13:17.966Z,6.60
2018-07-25T09:15:45.995Z,6.37
2018-07-25T09:18:14.073Z,6.00
2018-07-25T09:20:42.087Z,6.50
2018-07-25T09:23:10.161Z,7.30
2018-07-25T09:25:38.324Z,6.70
2018-07-25T09:28:06.308Z,6.20
2018-07-25T09:30:34.371Z,5.90
2018-07-25T09:33:02.432Z,6.03
2018-07-25T09:35:30.500Z,6.17
2018-07-25T09:37:58.556Z,6.00
2018-07-25T09:40:26.615Z,5.83
2018-07-25T09:42:54.673Z,6.50
2018-07-25T09:45:22.759Z,6.10
2018-07-25T09:47:50.816Z,6.70
2018-07-25T09:50:18.884Z,6.07
2018-07-25T09:52:46.934Z,5.97
2018-07-25T09:55:15.000Z,7.03
2018-07-25T09:57:43.054Z,6.00
2018-07-25T10:00:12.619Z,6.00
2018-07-25T10:02:41.217Z,6.33
2018-07-25T10:05:10.244Z,5.60
2018-07-25T10:07:38.372Z,5.83
2018-07-25T10:10:06.936Z,5.73
2018-07-25T10:12:34.964Z,6.00
2018-07-25T10:15:03.108Z,5.10
2018-07-25T10:17:31.090Z,5.60
2018-07-25T10:19:59.140Z,5.27
2018-07-25T10:22:27.254Z,5.00
2018-07-25T10:24:55.296Z,5.17
2018-07-25T10:27:23.433Z,4.87
2018-07-25T10:29:51.357Z,5.13
2018-07-25T10:32:19.396Z,5.57
2018-07-25T10:34:47.452Z,4.77
2018-07-25T10:37:15.478Z,5.07
2018-07-25T10:39:43.525Z,5.70
2018-07-25T10:42:11.576Z,4.70
2018-07-25T10:44:39.622Z,4.97
2018-07-25T10:47:07.676Z,5.37
2018-07-25T10:49:35.716Z,5.57
2018-07-25T10:52:03.768Z,4.93
2018-07-25T10:54:32.216Z,5.10
2018-07-25T10:57:00.259Z,6.37
2018-07-25T10:59:28.377Z,5.40
2018-07-25T11:01:56.396Z,5.10
2018-07-25T11:04:24.437Z,5.37
2018-07-25T11:06:52.480Z,4.67
2018-07-25T11:09:20.532Z,4.80
2018-07-25T11:11:48.563Z,5.20
2018-07-25T11:14:16.624Z,4.37
2018-07-25T11:16:44.652Z,4.60
2018-07-25T11:19:12.700Z,4.07
2018-07-25T11:21:40.760Z,5.07
2018-07-25T11:24:08.820Z,4.43
2018-07-25T11:26:36.875Z,4.20
2018-07-25T11:29:04.928Z,4.30
2018-07-25T11:31:33.020Z,3.93
2018-07-25T11:34:01.073Z,4.23
2018-07-25T11:36:29.140Z,4.50
2018-07-25T11:38:57.196Z,4.23
2018-07-25T11:41:25.260Z,4.70
2018-07-25T11:43:53.313Z,4.43
2018-07-25T11:46:21.384Z,3.93
2018-07-25T11:48:49.436Z,4.40
2018-07-25T11:51:17.492Z,4.63
2018-07-25T11:53:45.545Z,3.60
2018-07-25T11:56:13.629Z,3.70
2018-07-25T11:58:41.680Z,3.77
2018-07-25T12:01:09.830Z,4.07
2018-07-25T12:03:37.797Z,4.47
2018-07-25T12:06:06.016Z,4.10
2018-07-25T12:08:33.935Z,3.80
2018-07-25T12:11:01.992Z,4.80
2018-07-25T12:13:30.043Z,4.47
2018-07-25T12:15:58.100Z,3.70
2018-07-25T12:18:26.157Z,4.10
2018-07-25T12:20:54.204Z,4.07
2018-07-25T12:23:22.253Z,3.77
2018-07-25T12:25:50.296Z,3.70
2018-07-25T12:28:18.204Z,3.90
2018-07-25T12:30:46.266Z,3.47
2018-07-25T12:33:14.304Z,4.00
2018-07-25T12:35:42.413Z,4.20
2018-07-25T12:38:10.484Z,4.20
2018-07-25T12:40:38.536Z,3.60
2018-07-25T12:43:06.572Z,3.73
2018-07-25T12:45:34.617Z,4.20
2018-07-25T12:48:02.664Z,3.90
2018-07-25T12:50:30.709Z,3.90
2018-07-25T12:52:58.744Z,4.03
2018-07-25T12:55:26.795Z,3.20
2018-07-25T12:57:54.838Z,3.83
2018-07-25T13:00:22.901Z,3.83
2018-07-25T13:02:51.095Z,3.87
2018-07-25T13:05:19.096Z,4.20
2018-07-25T13:07:47.148Z,4.40
2018-07-25T13:10:15.200Z,4.40
2018-07-25T13:12:43.288Z,4.00
2018-07-25T13:15:11.329Z,3.87
2018-07-25T13:17:39.424Z,4.10
2018-07-25T13:20:07.628Z,4.00
2018-07-25T13:22:35.705Z,4.57
2018-07-25T13:25:03.744Z,3.63
2018-07-25T13:27:31.780Z,4.60
2018-07-25T13:29:59.839Z,3.40
2018-07-25T13:32:27.871Z,3.70
2018-07-25T13:34:55.905Z,3.40
2018-07-25T13:37:23.961Z,3.90
2018-07-25T13:39:52.004Z,4.00
2018-07-25T13:42:20.052Z,3.80
2018-07-25T13:44:48.087Z,3.80
2018-07-25T13:47:16.133Z,3.30
2018-07-25T13:49:44.165Z,4.20
2018-07-25T13:52:12.216Z,4.00
2018-07-25T13:54:40.240Z,4.03
2018-07-25T13:57:08.292Z,3.30
2018-07-25T13:59:36.345Z,3.30
2018-07-25T14:02:04.405Z,3.90
2018-07-25T14:04:32.456Z,3.60
2018-07-25T14:07:00.496Z,3.70
2018-07-25T14:09:28.544Z,3.63
2018-07-25T14:11:56.651Z,3.40
2018-07-25T14:14:24.647Z,4.10
2018-07-25T14:16:52.703Z,4.17
2018-07-25T14:19:20.760Z,4.30
2018-07-25T14:21:48.848Z,4.40
2018-07-25T14:24:16.966Z,4.87
2018-07-25T14:26:45.026Z,4.80
2018-07-25T14:29:13.123Z,4.80
2018-07-25T14:31:41.145Z,5.37
2018-07-25T14:34:09.210Z,5.43
2018-07-25T14:36:37.269Z,6.00
2018-07-25T14:39:08.346Z,5.00
2018-07-25T14:41:36.448Z,5.37
2018-07-25T14:44:04.553Z,4.40
2018-07-25T14:46:32.626Z,5.10
2018-07-25T14:49:00.712Z,5.33
2018-07-25T14:51:28.821Z,4.90
2018-07-25T14:53:57.014Z,5.10
2018-07-25T14:56:25.080Z,4.70
2018-07-25T14:58:53.136Z,5.20
2018-07-25T15:01:21.253Z,4.73
2018-07-25T15:03:49.327Z,4.83
2018-07-25T15:06:17.385Z,4.67
2018-07-25T15:08:45.448Z,5.30
2018-07-25T15:11:13.556Z,4.30
2018-07-25T15:13:41.607Z,5.13
2018-07-25T15:16:09.692Z,5.00
2018-07-25T15:18:37.761Z,4.17
2018-07-25T15:21:05.988Z,5.03
2018-07-25T15:23:45.584Z,6.17
2018-07-25T15:26:13.572Z,6.07
2018-07-25T15:28:41.612Z,6.70
2018-07-25T15:31:09.656Z,6.07
2018-07-25T15:33:37.703Z,5.43
2018-07-25T15:36:05.801Z,7.70
2018-07-25T15:38:33.798Z,8.13
2018-07-25T15:41:01.845Z,5.53
2018-07-25T15:43:29.881Z,5.47
2018-07-25T15:45:57.933Z,5.63
2018-07-25T15:48:25.970Z,5.00
2018-07-25T15:50:54.015Z,5.57
2018-07-25T15:53:22.064Z,5.00
2018-07-25T15:55:50.108Z,4.97
2018-07-25T15:58:18.168Z,5.03
2018-07-25T16:00:46.220Z,5.40
2018-07-25T16:03:14.263Z,5.80
2018-07-25T16:05:42.316Z,4.70
2018-07-25T16:08:10.369Z,5.43
2018-07-25T16:10:38.223Z,4.57
2018-07-25T16:13:06.385Z,5.30
2018-07-25T16:15:34.423Z,4.50
2018-07-25T16:18:02.593Z,4.80
2018-07-25T16:20:30.645Z,5.60
2018-07-25T16:22:58.705Z,4.23
2018-07-25T16:25:26.752Z,4.67
2018-07-25T16:27:54.808Z,3.80
2018-07-25T16:30:22.845Z,3.83
2018-07-25T16:32:50.896Z,3.93
2018-07-25T16:35:18.944Z,4.10
2018-07-25T16:37:47.004Z,4.77
2018-07-25T16:40:15.058Z,4.10
2018-07-25T16:42:43.107Z,4.70
2018-07-25T16:45:11.153Z,3.97
2018-07-25T16:47:39.196Z,4.47
2018-07-25T16:50:07.441Z,3.77
2018-07-25T16:52:35.492Z,3.80
2018-07-25T16:55:03.536Z,3.57
2018-07-25T16:57:31.592Z,3.53
2018-07-25T16:59:59.659Z,3.77
2018-07-25T17:02:27.704Z,3.83
2018-07-25T17:04:55.759Z,3.60
2018-07-25T17:07:23.821Z,3.80
2018-07-25T17:09:51.853Z,3.90
2018-07-25T17:12:19.912Z,3.80
2018-07-25T17:14:47.961Z,4.40
2018-07-25T17:17:16.008Z,3.87
2018-07-25T17:19:44.060Z,4.20
2018-07-25T17:22:12.173Z,3.83
2018-07-25T17:24:40.284Z,4.30
2018-07-25T17:27:08.347Z,4.50
2018-07-25T17:29:36.416Z,5.67
2018-07-25T17:32:04.489Z,4.43
2018-07-25T17:34:32.610Z,4.03
2018-07-25T17:37:00.685Z,3.97
2018-07-25T17:39:28.748Z,4.03
2018-07-25T17:41:56.820Z,3.50
2018-07-25T17:44:24.896Z,4.17
2018-07-25T17:46:52.985Z,3.97
2018-07-25T17:49:21.040Z,4.70
2018-07-25T17:51:49.110Z,4.20
2018-07-25T17:54:17.183Z,4.10
2018-07-25T17:59:20.022Z,3.70
2018-07-25T18:01:48.117Z,4.30
2018-07-25T18:04:16.296Z,3.67
2018-07-25T18:06:44.398Z,4.23
2018-07-25T18:09:12.447Z,3.70
2018-07-25T18:11:40.520Z,3.73
2018-07-25T18:14:11.125Z,3.50
2018-07-25T18:16:39.417Z,3.77
2018-07-25T18:19:07.496Z,3.97
2018-07-25T18:21:35.583Z,2.97
2018-07-25T18:24:03.669Z,3.25
2018-07-25T18:26:31.740Z,2.80
2018-07-25T18:28:59.805Z,2.90
2018-07-25T18:31:27.872Z,2.83
2018-07-25T18:33:55.952Z,2.70
2018-07-25T18:36:24.017Z,2.37
2018-07-25T18:38:52.205Z,2.97
2018-07-25T18:41:20.359Z,2.20
2018-07-25T18:43:48.561Z,1.70
2018-07-25T18:46:16.620Z,1.92
2018-07-25T18:48:44.833Z,2.62
2018-07-25T18:51:12.951Z,1.70
2018-07-25T18:53:41.021Z,1.60
2018-07-25T18:56:09.100Z,2.37
2018-07-25T18:58:37.173Z,2.10
2018-07-25T19:01:05.236Z,2.20
2018-07-25T19:03:33.336Z,2.10
2018-07-25T19:06:01.414Z,2.40
2018-07-25T19:08:29.500Z,2.58
2018-07-25T19:10:57.576Z,2.45
2018-07-25T19:13:31.018Z,1.90
2018-07-25T19:15:59.092Z,1.75
2018-07-25T19:18:27.161Z,2.45
2018-07-25T19:20:55.229Z,1.80
2018-07-25T19:23:23.295Z,1.60
2018-07-25T19:25:51.144Z,2.67
2018-07-25T19:28:19.199Z,4.42
2018-07-25T19:30:47.248Z,2.77
2018-07-25T19:33:15.336Z,3.35
2018-07-25T19:35:43.594Z,3.70
2018-07-25T19:38:11.619Z,3.90
2018-07-25T19:40:39.944Z,3.20
2018-07-25T19:43:07.998Z,3.87
2018-07-25T19:45:36.041Z,4.70
2018-07-25T19:48:04.108Z,4.50
2018-07-25T19:50:32.256Z,4.75
2018-07-25T19:53:00.272Z,4.28
2018-07-25T19:55:28.328Z,3.50
2018-07-25T19:57:56.408Z,3.10
2018-07-25T20:00:24.546Z,3.30
2018-07-25T20:02:52.584Z,3.42
2018-07-25T20:05:20.640Z,3.62
2018-07-25T20:07:48.683Z,3.60
2018-07-25T20:10:16.732Z,3.50
2018-07-25T20:12:44.780Z,3.80
2018-07-25T20:15:18.388Z,3.22
2018-07-25T20:17:46.453Z,3.62
2018-07-25T20:20:14.564Z,3.55
2018-07-25T20:22:42.656Z,3.30
2018-07-25T20:25:10.757Z,3.55
2018-07-25T20:27:38.849Z,4.17
2018-07-25T20:30:08.180Z,4.08
2018-07-25T20:32:36.265Z,4.03
2018-07-25T20:35:04.851Z,4.37
2018-07-25T20:37:33.245Z,3.60
2018-07-25T20:40:01.309Z,3.90
2018-07-25T20:42:29.415Z,3.98
2018-07-25T20:44:57.500Z,4.95
2018-07-25T20:47:25.569Z,3.83
2018-07-25T20:49:53.639Z,4.20
2018-07-25T20:52:21.745Z,4.33
2018-07-25T20:54:49.848Z,3.83
2018-07-25T20:57:17.929Z,4.20
2018-07-25T20:59:45.993Z,3.10
2018-07-25T21:02:14.073Z,4.05
2018-07-25T21:04:42.996Z,5.92
2018-07-25T21:07:11.064Z,6.53
2018-07-25T21:09:39.140Z,8.08
2018-07-25T21:12:07.227Z,4.37
2018-07-25T21:14:35.300Z,5.25
2018-07-25T21:17:03.411Z,3.95
2018-07-25T21:19:31.460Z,3.85
2018-07-25T21:21:59.528Z,4.75
2018-07-25T21:24:27.608Z,5.12
2018-07-25T21:26:55.673Z,3.70
2018-07-25T21:29:23.749Z,3.90
2018-07-25T21:31:51.821Z,3.35
2018-07-25T21:34:19.888Z,4.20
2018-07-25T21:36:47.958Z,4.00
2018-07-25T21:39:16.029Z,4.22
2018-07-25T21:41:44.090Z,3.55
2018-07-25T21:44:12.156Z,4.20
2018-07-25T21:46:40.221Z,3.90
2018-07-25T21:49:08.292Z,4.30
2018-07-25T21:51:36.361Z,4.08
2018-07-25T21:54:04.419Z,4.20
2018-07-25T21:56:32.485Z,6.45
2018-07-25T21:59:00.552Z,5.83
2018-07-25T22:01:28.634Z,6.72
2018-07-25T22:03:56.725Z,8.93
2018-07-25T22:06:24.783Z,6.97
2018-07-25T22:08:52.925Z,7.12
2018-07-25T22:11:20.932Z,7.25
2018-07-25T22:13:55.528Z,5.35
2018-07-25T22:16:24.429Z,4.50
2018-07-25T22:18:52.496Z,5.30
2018-07-25T22:21:20.552Z,5.08
2018-07-25T22:23:48.392Z,4.47
2018-07-25T22:26:16.452Z,4.10
2018-07-25T22:28:44.496Z,5.60
2018-07-25T22:31:12.544Z,4.78
2018-07-25T22:33:40.644Z,4.33
2018-07-25T22:36:09.314Z,4.37
2018-07-25T22:38:37.387Z,4.55
2018-07-25T22:41:05.832Z,3.90
2018-07-25T22:43:33.885Z,4.28
2018-07-25T22:46:01.948Z,4.00
2018-07-25T22:48:30.070Z,4.80
2018-07-25T22:50:58.164Z,3.90
2018-07-25T22:53:26.220Z,4.20
2018-07-25T22:55:54.279Z,3.77
2018-07-25T22:58:22.364Z,4.20
2018-07-25T23:00:50.412Z,4.45
2018-07-25T23:03:18.456Z,4.10
2018-07-25T23:05:46.536Z,4.28
2018-07-25T23:08:14.580Z,3.90
2018-07-25T23:10:42.628Z,3.92
2018-07-25T23:13:10.673Z,4.20
2018-07-25T23:15:38.719Z,4.03
2018-07-25T23:18:06.764Z,3.77
2018-07-25T23:20:34.805Z,4.28
2018-07-25T23:23:02.885Z,4.90
2018-07-25T23:25:30.950Z,4.00
2018-07-25T23:27:59.911Z,3.80
2018-07-25T23:30:28.929Z,3.92
2018-07-25T23:32:56.997Z,3.80
2018-07-25T23:35:25.076Z,4.87
2018-07-25T23:37:53.138Z,4.20
2018-07-25T23:40:21.289Z,4.35
2018-07-25T23:42:49.943Z,4.00
2018-07-25T23:45:18.344Z,4.33
2018-07-25T23:47:46.416Z,4.30
2018-07-25T23:50:14.507Z,4.28
2018-07-25T23:52:42.564Z,4.70
2018-07-25T23:55:10.669Z,3.65
2018-07-25T23:57:38.833Z,4.42
